createdAt,value
2022-12-12T00:12:27.094Z,47.15
2022-12-12T00:27:31.269Z,48.08
2022-12-12T00:42:33.229Z,45.22
2022-12-12T00:57:35.098Z,46.75
2022-12-12T01:12:37.119Z,43.65
2022-12-12T01:27:39.116Z,48.92
2022-12-12T01:42:41.127Z,48.90
2022-12-12T01:57:48.201Z,41.72
2022-12-12T02:12:50.424Z,43.87
2022-12-12T02:28:13.753Z,41.63
2022-12-12T02:43:26.745Z,41.35
2022-12-12T02:58:28.630Z,40.22
2022-12-12T03:13:45.501Z,42.55
2022-12-12T03:28:54.900Z,44.67
2022-12-12T03:44:06.326Z,41.03
2022-12-12T03:59:25.661Z,44.65
2022-12-12T04:14:44.091Z,41.20
2022-12-12T04:29:58.063Z,42.70
2022-12-12T04:45:06.956Z,39.67
2022-12-12T05:00:11.620Z,42.08
2022-12-12T05:15:15.687Z,44.33
2022-12-12T05:30:17.997Z,40.70
2022-12-12T05:45:19.982Z,38.90
2022-12-12T06:00:22.111Z,48.95
2022-12-12T06:15:24.172Z,42.17
2022-12-12T06:30:26.263Z,37.85
2022-12-12T06:45:28.247Z,35.38
2022-12-12T07:00:30.223Z,30.25
2022-12-12T07:15:32.171Z,35.67
2022-12-12T07:30:34.673Z,38.05
2022-12-12T07:45:36.646Z,32.47
2022-12-12T08:00:38.571Z,32.97
2022-12-12T08:15:42.135Z,30.77
2022-12-12T08:30:49.460Z,32.58
2022-12-12T08:45:51.476Z,28.10
2022-12-12T09:00:53.424Z,28.83
2022-12-12T09:15:55.996Z,28.70
2022-12-12T09:30:58.070Z,29.70
2022-12-12T09:46:01.759Z,26.35
2022-12-12T10:01:44.258Z,28.10
2022-12-12T10:16:46.748Z,24.42
2022-12-12T10:32:02.965Z,25.15
2022-12-12T10:47:07.783Z,26.05
2022-12-12T11:02:28.606Z,25.77
2022-12-12T11:17:34.167Z,27.95
2022-12-12T11:32:44.288Z,25.90
2022-12-12T11:47:47.786Z,21.80
2022-12-12T12:02:49.889Z,25.42
2022-12-12T12:18:16.595Z,19.33
2022-12-12T12:33:44.152Z,18.95
2022-12-12T12:48:52.821Z,22.70
2022-12-12T13:04:16.779Z,16.42
2022-12-12T13:19:38.184Z,19.13
2022-12-12T13:34:48.262Z,15.68
2022-12-12T13:50:03.545Z,12.30
2022-12-12T14:05:22.650Z,14.82
2022-12-12T14:20:36.524Z,12.18
2022-12-12T14:36:00.639Z,16.35
2022-12-12T14:51:29.027Z,15.23
2022-12-12T15:06:38.197Z,12.23
2022-12-12T15:21:40.437Z,12.25
2022-12-12T15:36:43.561Z,16.67
2022-12-12T15:51:45.554Z,13.27
2022-12-12T16:06:48.594Z,22.05
2022-12-12T16:21:50.726Z,10.95
2022-12-12T16:36:52.886Z,12.32
2022-12-12T16:51:54.845Z,11.35
2022-12-12T17:06:57.550Z,12.70
2022-12-12T17:21:59.707Z,10.35
2022-12-12T17:37:02.628Z,11.38
2022-12-12T17:52:04.896Z,10.82
2022-12-12T18:07:07.623Z,9.35
2022-12-12T18:22:11.077Z,12.75
2022-12-12T18:37:13.016Z,14.55
2022-12-12T18:52:14.963Z,17.05
2022-12-12T19:07:18.584Z,20.33
2022-12-12T19:22:43.820Z,18.88
2022-12-12T19:37:42.422Z,16.00
2022-12-12T19:52:44.410Z,16.75
2022-12-12T20:07:46.354Z,16.65
2022-12-12T20:22:48.370Z,22.80
2022-12-12T20:37:50.820Z,17.52
2022-12-12T20:52:52.956Z,12.70
2022-12-12T21:07:54.957Z,15.52
2022-12-12T21:22:56.970Z,14.57
2022-12-12T21:37:58.882Z,15.65
2022-12-12T21:53:19.709Z,14.68
2022-12-12T22:08:21.709Z,15.48
2022-12-12T22:23:23.716Z,12.40
2022-12-12T22:38:25.652Z,14.73
2022-12-12T22:53:27.719Z,16.85
2022-12-12T23:08:30.218Z,13.60
2022-12-12T23:23:34.363Z,16.60
2022-12-12T23:38:36.716Z,16.20
2022-12-12T23:53:38.587Z,18.27
